createdAt,value
2023-05-10T00:02:19.921Z,87.80
2023-05-10T00:04:46.341Z,87.70
2023-05-10T00:07:12.772Z,87.60
2023-05-10T00:09:39.205Z,87.40
2023-05-10T00:12:05.623Z,87.40
2023-05-10T00:14:32.012Z,87.20
2023-05-10T00:16:58.454Z,87.00
2023-05-10T00:19:24.930Z,87.00
2023-05-10T00:21:51.364Z,87.00
2023-05-10T00:24:17.798Z,87.00
2023-05-10T00:26:44.200Z,86.90
2023-05-10T00:29:10.631Z,86.90
2023-05-10T00:31:37.067Z,87.00
2023-05-10T00:34:03.547Z,87.00
2023-05-10T00:36:30.013Z,86.90
2023-05-10T00:38:56.395Z,86.80
2023-05-10T00:41:22.800Z,86.80
2023-05-10T00:43:49.238Z,86.90
2023-05-10T00:46:15.674Z,86.90
2023-05-10T00:48:42.190Z,86.80
2023-05-10T00:51:08.633Z,86.80
2023-05-10T00:53:35.033Z,86.90
2023-05-10T00:56:01.470Z,86.90
2023-05-10T00:58:27.948Z,86.80
2023-05-10T01:00:54.413Z,86.80
2023-05-10T01:03:20.935Z,86.80
2023-05-10T01:05:47.482Z,86.70
2023-05-10T01:08:13.933Z,86.80
2023-05-10T01:10:40.317Z,86.70
2023-05-10T01:13:06.716Z,86.70
2023-05-10T01:15:33.158Z,86.60
2023-05-10T01:17:59.593Z,86.50
2023-05-10T01:20:26.045Z,86.50
2023-05-10T01:22:52.427Z,86.50
2023-05-10T01:25:18.814Z,86.40
2023-05-10T01:27:45.327Z,86.40
2023-05-10T01:30:15.824Z,86.40
2023-05-10T01:32:42.472Z,86.40
2023-05-10T01:35:08.930Z,86.50
2023-05-10T01:37:35.348Z,86.50
2023-05-10T01:40:01.808Z,86.50
2023-05-10T01:42:28.253Z,86.40
2023-05-10T01:44:54.653Z,86.50
2023-05-10T01:47:21.077Z,86.60
2023-05-10T01:49:47.511Z,86.60
2023-05-10T01:52:13.893Z,86.60
2023-05-10T01:54:40.275Z,86.70
2023-05-10T01:57:06.709Z,86.80
2023-05-10T01:59:33.186Z,86.80
2023-05-10T02:01:59.608Z,86.80
2023-05-10T02:04:26.046Z,86.80
2023-05-10T02:06:52.735Z,86.70
2023-05-10T02:09:19.158Z,86.70
2023-05-10T02:11:45.868Z,86.70
2023-05-10T02:14:12.239Z,86.70
2023-05-10T02:16:38.738Z,86.90
2023-05-10T02:19:05.205Z,86.80
2023-05-10T02:21:31.598Z,86.80
2023-05-10T02:23:58.026Z,86.90
2023-05-10T02:26:24.500Z,87.00
2023-05-10T02:28:50.896Z,87.00
2023-05-10T02:31:17.358Z,87.00
2023-05-10T02:33:43.813Z,86.90
2023-05-10T02:36:10.239Z,86.90
2023-05-10T02:38:36.686Z,86.90
2023-05-10T02:41:03.075Z,87.00
2023-05-10T02:43:29.480Z,87.00
2023-05-10T02:45:55.985Z,86.90
2023-05-10T02:48:22.374Z,86.90
2023-05-10T02:50:48.802Z,86.90
2023-05-10T02:53:15.257Z,86.80
2023-05-10T02:55:41.718Z,86.80
2023-05-10T02:58:08.146Z,86.80
2023-05-10T03:00:34.611Z,86.80
2023-05-10T03:03:01.111Z,86.70
2023-05-10T03:05:27.611Z,86.70
2023-05-10T03:07:54.080Z,86.70
2023-05-10T03:10:20.530Z,86.80
2023-05-10T03:12:47.017Z,86.70
2023-05-10T03:15:13.414Z,87.30
2023-05-10T03:17:39.867Z,86.70
2023-05-10T03:20:06.332Z,86.60
2023-05-10T03:22:32.756Z,86.80
2023-05-10T03:24:59.149Z,86.80
2023-05-10T03:27:25.516Z,87.60
2023-05-10T03:29:51.971Z,87.00
2023-05-10T03:32:18.394Z,86.80
2023-05-10T03:34:44.785Z,86.80
2023-05-10T03:37:11.274Z,86.80
2023-05-10T03:39:37.706Z,87.00
2023-05-10T03:42:04.114Z,87.00
2023-05-10T03:44:30.595Z,87.20
2023-05-10T03:46:57.057Z,87.10
2023-05-10T03:49:23.555Z,87.00
2023-05-10T03:51:49.982Z,87.00
2023-05-10T03:54:16.538Z,87.10
2023-05-10T03:56:43.003Z,87.10
2023-05-10T03:59:09.386Z,87.20
2023-05-10T04:01:35.805Z,87.00
2023-05-10T04:04:02.216Z,87.00
2023-05-10T04:06:28.697Z,87.20
2023-05-10T04:08:55.169Z,87.20
2023-05-10T04:11:21.615Z,87.10
2023-05-10T04:13:48.034Z,87.00
2023-05-10T04:16:14.576Z,87.20
2023-05-10T04:18:41.048Z,87.30
2023-05-10T04:21:07.493Z,87.30
2023-05-10T04:23:33.882Z,87.40
2023-05-10T04:26:00.308Z,87.40
2023-05-10T04:28:26.686Z,87.30
2023-05-10T04:30:53.115Z,87.40
2023-05-10T04:33:19.562Z,87.30
2023-05-10T04:35:46.012Z,87.30
2023-05-10T04:38:12.472Z,87.20
2023-05-10T04:40:38.938Z,87.10
2023-05-10T04:43:05.320Z,87.20
2023-05-10T04:45:31.766Z,87.30
2023-05-10T04:47:58.250Z,87.40
2023-05-10T04:50:24.768Z,87.30
2023-05-10T04:52:52.689Z,87.40
2023-05-10T04:55:19.627Z,87.50
2023-05-10T04:57:46.048Z,87.50
2023-05-10T05:00:12.504Z,87.70
2023-05-10T05:02:39.014Z,87.70
2023-05-10T05:05:05.449Z,87.80
2023-05-10T05:07:31.917Z,87.80
2023-05-10T05:09:58.368Z,87.80
2023-05-10T05:12:24.771Z,87.90
2023-05-10T05:14:51.165Z,87.90
2023-05-10T05:17:17.586Z,87.90
2023-05-10T05:19:44.017Z,87.80
2023-05-10T05:22:10.522Z,87.80
2023-05-10T05:24:36.985Z,87.70
2023-05-10T05:27:03.415Z,87.70
2023-05-10T05:29:29.801Z,87.60
2023-05-10T05:31:56.338Z,87.50
2023-05-10T05:34:22.793Z,87.50
2023-05-10T05:36:49.233Z,87.50
2023-05-10T05:39:15.691Z,87.50
2023-05-10T05:41:42.134Z,87.50
2023-05-10T05:44:08.602Z,87.50
2023-05-10T05:46:35.052Z,87.60
2023-05-10T05:49:01.478Z,87.60
2023-05-10T05:51:27.911Z,87.60
2023-05-10T05:53:54.321Z,87.60
2023-05-10T05:56:20.696Z,87.50
2023-05-10T05:58:47.101Z,87.50
2023-05-10T06:01:13.570Z,87.50
2023-05-10T06:03:40.092Z,87.70
2023-05-10T06:06:06.587Z,87.70
2023-05-10T06:08:32.991Z,87.70
2023-05-10T06:10:59.362Z,87.60
2023-05-10T06:13:25.806Z,87.50
2023-05-10T06:15:52.204Z,87.40
2023-05-10T06:18:18.629Z,87.30
2023-05-10T06:20:45.102Z,87.40
2023-05-10T06:23:11.488Z,87.30
2023-05-10T06:25:37.860Z,87.30
2023-05-10T06:28:04.251Z,87.30
2023-05-10T06:30:30.691Z,87.60
2023-05-10T06:32:57.182Z,87.20
2023-05-10T06:35:23.597Z,87.20
2023-05-10T06:37:50.040Z,87.20
2023-05-10T06:40:16.493Z,87.20
2023-05-10T06:42:42.881Z,86.90
2023-05-10T06:45:09.336Z,87.00
2023-05-10T06:47:38.688Z,86.90
2023-05-10T06:50:05.523Z,86.90
2023-05-10T06:52:31.988Z,86.90
2023-05-10T06:54:58.450Z,87.00
2023-05-10T06:59:56.804Z,87.30
2023-05-10T07:02:23.217Z,87.40
2023-05-10T07:04:49.700Z,87.30
2023-05-10T07:07:16.107Z,87.20
2023-05-10T07:09:42.558Z,87.20
2023-05-10T07:12:11.122Z,87.20
2023-05-10T07:14:38.662Z,87.30
2023-05-10T07:17:05.142Z,87.00
2023-05-10T07:19:31.526Z,87.00
2023-05-10T07:21:57.909Z,87.00
2023-05-10T07:24:24.276Z,87.00
2023-05-10T07:26:50.722Z,87.10
2023-05-10T07:29:17.160Z,87.00
2023-05-10T07:31:43.645Z,87.10
2023-05-10T07:34:10.078Z,87.10
2023-05-10T07:36:36.457Z,87.20
2023-05-10T07:39:02.921Z,87.10
2023-05-10T07:41:29.374Z,87.10
2023-05-10T07:43:55.847Z,87.00
2023-05-10T07:46:22.375Z,86.80
2023-05-10T07:48:48.923Z,86.70
2023-05-10T07:51:15.354Z,86.50
2023-05-10T07:53:41.758Z,86.70
2023-05-10T07:56:08.228Z,86.90
2023-05-10T07:58:34.683Z,87.00
2023-05-10T08:01:01.132Z,87.00
2023-05-10T08:03:27.651Z,86.90
2023-05-10T08:05:54.128Z,87.10
2023-05-10T08:08:20.490Z,86.90
2023-05-10T08:10:46.881Z,86.90
2023-05-10T08:13:13.289Z,86.90
2023-05-10T08:15:39.721Z,86.90
2023-05-10T08:18:06.174Z,87.00
2023-05-10T08:20:32.605Z,87.00
2023-05-10T08:22:59.037Z,87.10
2023-05-10T08:25:25.671Z,87.00
2023-05-10T08:27:52.205Z,86.80
2023-05-10T08:30:18.657Z,87.00
2023-05-10T08:32:45.187Z,86.60
2023-05-10T08:35:11.568Z,86.50
2023-05-10T08:37:37.955Z,86.60
2023-05-10T08:40:04.350Z,86.70
2023-05-10T08:42:30.787Z,86.70
2023-05-10T08:44:57.174Z,86.70
2023-05-10T08:47:23.666Z,86.80
2023-05-10T08:49:50.133Z,87.00
2023-05-10T08:52:16.540Z,87.00
2023-05-10T08:54:42.910Z,87.00
2023-05-10T08:57:09.311Z,86.50
2023-05-10T08:59:35.739Z,86.40
2023-05-10T09:02:02.198Z,86.40
2023-05-10T09:04:28.760Z,86.30
2023-05-10T09:06:55.377Z,86.20
2023-05-10T09:09:21.772Z,86.30
2023-05-10T09:11:48.214Z,86.60
2023-05-10T09:14:14.646Z,86.80
2023-05-10T09:16:41.168Z,87.00
2023-05-10T09:19:08.823Z,86.90
2023-05-10T09:21:35.353Z,86.30
2023-05-10T09:24:01.793Z,86.10
2023-05-10T09:26:28.240Z,86.00
2023-05-10T09:28:54.635Z,85.90
2023-05-10T09:31:21.113Z,86.00
2023-05-10T09:33:47.684Z,85.90
2023-05-10T09:36:14.089Z,85.80
2023-05-10T09:38:40.487Z,85.60
2023-05-10T09:41:06.849Z,85.30
2023-05-10T09:43:33.252Z,85.40
2023-05-10T09:45:59.730Z,85.30
2023-05-10T09:48:26.241Z,84.40
2023-05-10T09:50:52.654Z,84.20
2023-05-10T09:53:19.053Z,84.30
2023-05-10T09:55:45.515Z,84.90
2023-05-10T09:58:12.104Z,84.70
2023-05-10T10:00:38.500Z,84.80
2023-05-10T10:03:04.996Z,84.70
2023-05-10T10:05:31.459Z,84.30
2023-05-10T10:07:57.894Z,84.30
2023-05-10T10:10:26.378Z,84.30
2023-05-10T10:12:52.803Z,84.10
2023-05-10T10:15:19.335Z,83.50
2023-05-10T10:17:46.001Z,83.30
2023-05-10T10:20:12.478Z,83.20
2023-05-10T10:22:38.873Z,83.10
2023-05-10T10:25:05.289Z,83.00
2023-05-10T10:27:31.686Z,82.70
2023-05-10T10:29:58.135Z,82.30
2023-05-10T10:32:24.628Z,82.20
2023-05-10T10:34:51.111Z,81.90
2023-05-10T10:37:17.664Z,82.10
2023-05-10T10:39:44.061Z,82.10
2023-05-10T10:42:10.508Z,82.30
2023-05-10T10:44:36.959Z,82.00
2023-05-10T10:47:03.518Z,81.90
2023-05-10T10:49:29.953Z,82.10
2023-05-10T10:51:56.341Z,82.30
2023-05-10T10:54:22.710Z,82.30
2023-05-10T10:56:49.159Z,82.20
2023-05-10T10:59:15.661Z,82.00
2023-05-10T11:01:42.169Z,81.80
2023-05-10T11:04:08.625Z,81.20
2023-05-10T11:06:35.168Z,80.90
2023-05-10T11:09:01.685Z,80.60
2023-05-10T11:11:28.121Z,80.40
2023-05-10T11:13:54.564Z,80.30
2023-05-10T11:16:21.109Z,80.30
2023-05-10T11:18:49.799Z,80.10
2023-05-10T11:21:16.696Z,80.00
2023-05-10T11:23:43.070Z,80.10
2023-05-10T11:26:09.494Z,80.20
2023-05-10T11:28:35.900Z,80.10
2023-05-10T11:31:02.384Z,80.20
2023-05-10T11:33:28.839Z,80.10
2023-05-10T11:35:55.277Z,79.90
2023-05-10T11:38:21.669Z,79.60
2023-05-10T11:40:48.135Z,79.50
2023-05-10T11:43:14.583Z,79.10
2023-05-10T11:45:41.016Z,78.80
2023-05-10T11:48:07.424Z,78.90
2023-05-10T11:50:33.900Z,78.60
2023-05-10T11:53:00.405Z,78.40
2023-05-10T11:55:27.025Z,78.10
2023-05-10T11:57:53.476Z,78.00
2023-05-10T12:00:20.036Z,77.70
2023-05-10T12:02:46.750Z,77.50
2023-05-10T12:05:13.218Z,77.20
2023-05-10T12:07:39.653Z,77.10
2023-05-10T12:10:06.090Z,77.10
2023-05-10T12:12:32.513Z,76.80
2023-05-10T12:14:58.909Z,76.60
2023-05-10T12:17:25.370Z,76.20
2023-05-10T12:19:51.817Z,76.10
2023-05-10T12:22:18.197Z,75.80
2023-05-10T12:24:44.649Z,75.40
2023-05-10T12:27:11.019Z,74.70
2023-05-10T12:29:37.403Z,74.20
2023-05-10T12:32:03.898Z,73.70
2023-05-10T12:34:30.361Z,74.20
2023-05-10T12:36:56.753Z,73.20
2023-05-10T12:39:23.135Z,73.50
2023-05-10T12:41:49.527Z,73.70
2023-05-10T12:44:15.925Z,73.90
2023-05-10T12:46:42.305Z,74.30
2023-05-10T12:49:09.766Z,74.20
2023-05-10T12:51:36.417Z,74.60
2023-05-10T12:54:02.811Z,74.80
2023-05-10T12:56:29.181Z,74.80
2023-05-10T12:58:55.561Z,74.60
2023-05-10T13:01:21.986Z,74.50
2023-05-10T13:03:48.378Z,74.20
2023-05-10T13:06:14.804Z,74.10
2023-05-10T13:08:41.234Z,74.00
2023-05-10T13:11:07.627Z,73.80
2023-05-10T13:13:34.009Z,73.40
2023-05-10T13:16:00.387Z,72.50
2023-05-10T13:18:26.845Z,72.00
2023-05-10T13:20:53.272Z,71.60
2023-05-10T13:23:19.662Z,71.90
2023-05-10T13:25:46.067Z,72.10
2023-05-10T13:28:12.484Z,72.10
2023-05-10T13:30:38.918Z,72.70
2023-05-10T13:33:05.346Z,73.30
2023-05-10T13:35:31.764Z,73.70
2023-05-10T13:37:58.138Z,74.10
2023-05-10T13:40:24.542Z,74.30
2023-05-10T13:42:50.922Z,74.60
2023-05-10T13:45:17.600Z,74.80
2023-05-10T13:47:44.287Z,74.60
2023-05-10T13:50:10.698Z,74.30
2023-05-10T13:52:37.080Z,74.40
2023-05-10T13:55:03.456Z,74.40
2023-05-10T13:57:29.844Z,74.60
2023-05-10T13:59:57.616Z,74.70
2023-05-10T14:02:24.133Z,74.70
2023-05-10T14:04:50.582Z,74.60
2023-05-10T14:07:16.959Z,74.50
2023-05-10T14:09:43.347Z,74.40
2023-05-10T14:12:09.731Z,74.10
2023-05-10T14:14:36.120Z,73.60
2023-05-10T14:17:02.550Z,73.40
2023-05-10T14:19:28.973Z,73.50
2023-05-10T14:21:55.353Z,73.20
2023-05-10T14:24:21.742Z,73.20
2023-05-10T14:26:48.155Z,73.20
2023-05-10T14:29:14.542Z,73.30
2023-05-10T14:31:41.013Z,73.30
2023-05-10T14:34:07.424Z,73.10
2023-05-10T14:36:33.818Z,72.70
2023-05-10T14:39:00.267Z,72.50
2023-05-10T14:41:26.654Z,72.40
2023-05-10T14:43:53.035Z,72.30
2023-05-10T14:46:19.475Z,72.10
2023-05-10T14:48:45.992Z,71.90
2023-05-10T14:51:12.388Z,71.80
2023-05-10T14:53:38.758Z,71.80
2023-05-10T14:56:05.155Z,71.90
2023-05-10T14:58:33.835Z,71.90
2023-05-10T15:01:00.619Z,72.00
2023-05-10T15:03:27.569Z,72.10
2023-05-10T15:05:54.283Z,72.30
2023-05-10T15:08:20.662Z,72.10
2023-05-10T15:10:47.046Z,72.30
2023-05-10T15:13:13.417Z,72.20
2023-05-10T15:15:39.797Z,72.00
2023-05-10T15:18:06.278Z,72.20
2023-05-10T15:20:32.671Z,72.40
2023-05-10T15:22:59.054Z,72.40
2023-05-10T15:25:25.427Z,72.10
2023-05-10T15:27:51.813Z,71.70
2023-05-10T15:30:18.212Z,72.00
2023-05-10T15:32:44.575Z,72.20
2023-05-10T15:35:11.007Z,72.00
2023-05-10T15:37:37.389Z,71.90
2023-05-10T15:40:03.799Z,71.90
2023-05-10T15:42:30.226Z,72.10
2023-05-10T15:44:56.632Z,72.20
2023-05-10T15:47:23.026Z,71.90
2023-05-10T15:49:49.419Z,72.10
2023-05-10T15:52:15.799Z,72.30
2023-05-10T15:54:42.213Z,72.50
2023-05-10T15:57:08.667Z,72.10
2023-05-10T15:59:35.066Z,71.80
2023-05-10T16:02:01.587Z,71.70
2023-05-10T16:04:28.015Z,72.00
2023-05-10T16:06:54.416Z,72.00
2023-05-10T16:09:20.797Z,71.80
2023-05-10T16:11:47.435Z,72.20
2023-05-10T16:14:13.856Z,71.80
2023-05-10T16:16:40.338Z,71.80
2023-05-10T16:19:06.854Z,71.90
2023-05-10T16:21:33.346Z,71.90
2023-05-10T16:23:59.725Z,71.90
2023-05-10T16:26:26.149Z,72.10
2023-05-10T16:28:52.619Z,72.50
2023-05-10T16:31:19.042Z,72.60
2023-05-10T16:33:45.458Z,72.70
2023-05-10T16:36:11.922Z,72.90
2023-05-10T16:38:38.394Z,73.00
2023-05-10T16:41:04.848Z,73.40
2023-05-10T16:43:31.314Z,73.80
2023-05-10T16:45:57.841Z,73.80
2023-05-10T16:48:24.270Z,73.90
2023-05-10T16:50:50.716Z,74.00
2023-05-10T16:53:17.293Z,74.10
2023-05-10T16:55:43.790Z,74.00
2023-05-10T16:58:10.187Z,74.10
2023-05-10T17:00:36.725Z,74.10
2023-05-10T17:03:03.523Z,74.20
2023-05-10T17:05:29.976Z,74.40
2023-05-10T17:07:56.411Z,74.40
2023-05-10T17:10:22.798Z,74.40
2023-05-10T17:12:49.297Z,74.40
2023-05-10T17:15:15.830Z,74.30
2023-05-10T17:17:42.538Z,74.40
2023-05-10T17:20:09.015Z,74.40
2023-05-10T17:22:35.455Z,74.30
2023-05-10T17:25:01.893Z,74.10
2023-05-10T17:27:28.353Z,74.10
2023-05-10T17:29:54.758Z,74.10
2023-05-10T17:32:21.301Z,74.10
2023-05-10T17:34:47.743Z,74.10
2023-05-10T17:37:14.184Z,74.00
2023-05-10T17:39:40.643Z,74.00
2023-05-10T17:42:07.105Z,74.10
2023-05-10T17:44:33.516Z,74.10
2023-05-10T17:46:59.978Z,74.10
2023-05-10T17:49:26.354Z,74.10
2023-05-10T17:51:52.746Z,74.00
2023-05-10T17:54:19.185Z,74.10
2023-05-10T17:56:45.638Z,74.40
2023-05-10T17:59:12.052Z,74.50
2023-05-10T18:01:38.477Z,74.60
2023-05-10T18:04:04.879Z,74.70
2023-05-10T18:06:31.273Z,74.90
2023-05-10T18:08:57.772Z,75.00
2023-05-10T18:11:24.174Z,75.20
2023-05-10T18:13:50.631Z,75.40
2023-05-10T18:16:17.086Z,75.70
2023-05-10T18:18:43.610Z,76.00
2023-05-10T18:21:10.080Z,76.30
2023-05-10T18:23:36.686Z,76.60
2023-05-10T18:26:03.384Z,76.80
2023-05-10T18:28:29.864Z,76.90
2023-05-10T18:30:56.326Z,77.00
2023-05-10T18:33:22.735Z,77.20
2023-05-10T18:35:49.115Z,77.20
2023-05-10T18:38:15.624Z,77.20
2023-05-10T18:40:42.084Z,77.30
2023-05-10T18:43:08.464Z,77.40
2023-05-10T18:45:34.867Z,77.60
2023-05-10T18:48:01.384Z,77.80
2023-05-10T18:50:27.903Z,77.90
2023-05-10T18:52:54.406Z,78.00
2023-05-10T18:55:20.796Z,78.10
2023-05-10T18:57:47.167Z,78.10
2023-05-10T19:00:13.639Z,78.20
2023-05-10T19:02:40.192Z,78.30
2023-05-10T19:05:06.709Z,78.40
2023-05-10T19:07:33.089Z,78.40
2023-05-10T19:09:59.548Z,78.60
2023-05-10T19:12:25.995Z,78.70
2023-05-10T19:14:52.388Z,78.80
2023-05-10T19:17:20.020Z,78.90
2023-05-10T19:19:48.400Z,79.00
2023-05-10T19:22:14.833Z,79.10
2023-05-10T19:24:41.408Z,79.30
2023-05-10T19:27:07.899Z,79.30
2023-05-10T19:29:34.465Z,79.30
2023-05-10T19:32:03.027Z,79.40
2023-05-10T19:34:30.018Z,79.40
2023-05-10T19:36:56.422Z,79.40
2023-05-10T19:39:22.808Z,79.40
2023-05-10T19:41:49.218Z,79.40
2023-05-10T19:44:15.711Z,79.30
2023-05-10T19:46:42.202Z,79.50
2023-05-10T19:49:08.607Z,79.40
2023-05-10T19:51:35.046Z,79.50
2023-05-10T19:54:01.503Z,79.50
2023-05-10T19:56:27.937Z,79.60
2023-05-10T19:58:54.411Z,79.70
2023-05-10T20:01:20.943Z,79.70
2023-05-10T20:03:47.404Z,79.80
2023-05-10T20:06:13.830Z,79.80
2023-05-10T20:08:40.247Z,79.80
2023-05-10T20:11:06.787Z,79.80
2023-05-10T20:13:33.233Z,79.90
2023-05-10T20:15:59.741Z,80.00
2023-05-10T20:18:26.273Z,80.10
2023-05-10T20:20:52.744Z,80.10
2023-05-10T20:23:19.142Z,80.20
2023-05-10T20:25:45.738Z,80.40
2023-05-10T20:28:12.232Z,80.50
2023-05-10T20:30:38.651Z,80.40
2023-05-10T20:33:05.064Z,80.40
2023-05-10T20:35:31.551Z,80.40
2023-05-10T20:37:57.930Z,80.40
2023-05-10T20:40:24.313Z,80.50
2023-05-10T20:42:50.698Z,80.60
2023-05-10T20:45:17.066Z,80.70
2023-05-10T20:47:43.472Z,80.80
2023-05-10T20:50:09.928Z,80.90
2023-05-10T20:52:36.632Z,81.00
2023-05-10T20:55:03.009Z,81.00
2023-05-10T20:57:29.526Z,81.00
2023-05-10T20:59:55.901Z,81.00
2023-05-10T21:02:22.307Z,81.00
2023-05-10T21:04:48.792Z,81.10
2023-05-10T21:07:15.345Z,81.10
2023-05-10T21:09:41.792Z,81.20
2023-05-10T21:12:08.196Z,81.30
2023-05-10T21:14:34.572Z,81.30
2023-05-10T21:17:01.003Z,81.40
2023-05-10T21:19:27.408Z,81.60
2023-05-10T21:21:53.853Z,81.40
2023-05-10T21:24:20.240Z,81.50
2023-05-10T21:26:46.629Z,81.70
2023-05-10T21:29:13.024Z,81.80
2023-05-10T21:31:39.423Z,81.70
2023-05-10T21:34:05.880Z,81.70
2023-05-10T21:36:32.266Z,81.70
2023-05-10T21:38:58.642Z,81.70
2023-05-10T21:41:25.086Z,81.80
2023-05-10T21:43:51.469Z,81.90
2023-05-10T21:46:17.965Z,81.90
2023-05-10T21:48:46.756Z,81.90
2023-05-10T21:51:13.193Z,81.90
2023-05-10T21:53:39.597Z,81.80
2023-05-10T21:56:06.022Z,81.90
2023-05-10T21:58:32.480Z,81.80
2023-05-10T22:00:58.935Z,82.50
2023-05-10T22:03:25.915Z,81.90
2023-05-10T22:05:52.594Z,82.00
2023-05-10T22:08:19.072Z,82.10
2023-05-10T22:10:45.677Z,82.20
2023-05-10T22:13:12.071Z,82.20
2023-05-10T22:15:38.558Z,82.30
2023-05-10T22:18:05.024Z,82.40
2023-05-10T22:20:31.466Z,82.40
2023-05-10T22:22:57.875Z,82.40
2023-05-10T22:25:24.329Z,82.60
2023-05-10T22:27:50.725Z,82.60
2023-05-10T22:30:17.524Z,82.60
2023-05-10T22:32:44.313Z,82.70
2023-05-10T22:35:10.752Z,82.70
2023-05-10T22:37:37.231Z,82.60
2023-05-10T22:40:03.653Z,82.60
2023-05-10T22:42:30.046Z,82.70
2023-05-10T22:44:56.427Z,82.80
2023-05-10T22:47:22.890Z,82.90
2023-05-10T22:49:49.277Z,83.00
2023-05-10T22:52:15.787Z,83.00
2023-05-10T22:54:42.266Z,83.00
2023-05-10T22:57:08.695Z,83.00
2023-05-10T22:59:35.138Z,83.10
2023-05-10T23:02:01.629Z,83.00
2023-05-10T23:04:28.152Z,82.90
2023-05-10T23:06:54.598Z,82.90
2023-05-10T23:09:20.970Z,82.90
2023-05-10T23:11:47.388Z,83.00
2023-05-10T23:14:13.788Z,83.00
2023-05-10T23:16:40.316Z,83.00
2023-05-10T23:19:06.954Z,83.00
2023-05-10T23:21:33.446Z,83.00
2023-05-10T23:23:59.882Z,83.10
2023-05-10T23:26:26.302Z,83.20
2023-05-10T23:28:52.716Z,83.20
2023-05-10T23:31:19.178Z,83.50
2023-05-10T23:33:45.778Z,83.30
2023-05-10T23:36:12.218Z,83.30
2023-05-10T23:38:38.634Z,83.40
2023-05-10T23:41:05.065Z,83.30
2023-05-10T23:43:31.526Z,83.30
2023-05-10T23:45:57.983Z,83.30
2023-05-10T23:48:24.557Z,83.30
2023-05-10T23:50:51.024Z,83.30
2023-05-10T23:53:17.467Z,83.30
2023-05-10T23:55:43.868Z,83.30
2023-05-10T23:58:10.338Z,83.40
